Time;durP1;ratioP1;P1;durP2;ratioP2;P2;SDS_P1;SDS_P2;PMS_P1;PMS_P2;Temp;Humidity;BMP_temperature;BMP_pressure;BME280_temperature;BME280_humidity;BME280_pressure;Samples;Min_cycle;Max_cycle;Signal;HPM_P1;HPM_P2
2023/09/27 00:00:09;;;;;;;3.13;2.60;;;25.10;68.10;;;;;;5104834;28;20962;-75
2023/09/27 00:02:43;;;;;;;3.63;3.33;;;25.10;68.10;;;;;;5108575;28;20509;-75
2023/09/27 00:05:14;;;;;;;3.20;2.97;;;25.10;68.10;;;;;;5098159;28;20564;-75
2023/09/27 00:07:42;;;;;;;2.93;2.73;;;25.10;68.10;;;;;;5100304;28;20451;-75
2023/09/27 00:10:11;;;;;;;3.67;3.13;;;25.10;68.10;;;;;;5099067;28;20543;-74
2023/09/27 00:12:40;;;;;;;2.43;2.23;;;25.10;68.10;;;;;;5109966;28;20512;-74
2023/09/27 00:15:11;;;;;;;2.97;2.77;;;25.10;68.10;;;;;;5112906;28;20447;-74
2023/09/27 00:17:43;;;;;;;3.57;2.63;;;25.10;68.10;;;;;;5112350;28;21337;-75
2023/09/27 00:20:15;;;;;;;3.00;2.70;;;25.10;68.10;;;;;;5120335;27;20461;-74
2023/09/27 00:22:45;;;;;;;3.23;2.93;;;25.10;68.00;;;;;;5114289;27;20446;-74
2023/09/27 00:25:14;;;;;;;3.00;2.80;;;25.00;68.10;;;;;;5115112;28;20547;-75
2023/09/27 00:27:42;;;;;;;3.20;2.87;;;25.00;68.10;;;;;;5114643;28;21025;-75
2023/09/27 00:30:14;;;;;;;3.10;2.70;;;25.00;68.10;;;;;;5096144;28;20562;-74
2023/09/27 00:32:45;;;;;;;2.70;2.57;;;25.00;68.10;;;;;;5100615;27;20445;-74
2023/09/27 00:35:19;;;;;;;2.90;2.70;;;25.00;68.10;;;;;;5106405;28;20455;-74
2023/09/27 00:37:48;;;;;;;2.93;2.67;;;25.00;68.10;;;;;;5096171;28;20804;-74
2023/09/27 00:40:18;;;;;;;3.10;2.50;;;25.00;68.10;;;;;;5114554;28;20436;-75
2023/09/27 00:42:47;;;;;;;3.13;2.83;;;25.00;68.10;;;;;;5094668;28;20454;-75
2023/09/27 00:45:18;;;;;;;2.57;2.40;;;25.00;68.00;;;;;;5114489;28;20498;-75
2023/09/27 00:47:49;;;;;;;2.97;2.77;;;25.00;68.10;;;;;;5113269;28;20453;-76
2023/09/27 00:50:18;;;;;;;5.30;3.80;;;25.00;68.10;;;;;;5105169;28;20439;-75
2023/09/27 00:52:47;;;;;;;2.77;2.57;;;25.00;68.00;;;;;;5113729;27;20452;-75
2023/09/27 00:55:20;;;;;;;2.90;2.70;;;25.00;68.00;;;;;;5114219;28;20442;-75
2023/09/27 00:57:51;;;;;;;3.10;2.90;;;25.00;68.00;;;;;;5095844;28;20443;-75
2023/09/27 01:00:20;;;;;;;2.90;2.67;;;25.00;68.00;;;;;;5095644;28;20464;-75
2023/09/27 01:02:54;;;;;;;3.13;2.57;;;25.00;68.00;;;;;;5110846;27;20885;-74
2023/09/27 01:05:22;;;;;;;5.80;2.70;;;24.90;68.00;;;;;;5102680;28;20802;-74
2023/09/27 01:07:51;;;;;;;3.07;2.53;;;24.90;68.00;;;;;;5108092;28;20507;-74
2023/09/27 01:10:20;;;;;;;3.07;2.77;;;24.90;68.00;;;;;;5113049;28;20857;-74
2023/09/27 01:12:48;;;;;;;3.10;2.90;;;24.90;68.00;;;;;;5083380;28;21030;-75
2023/09/27 01:15:17;;;;;;;2.80;2.60;;;24.90;68.00;;;;;;5098069;28;20448;-75
2023/09/27 01:17:57;;;;;;;3.23;2.93;;;24.90;68.00;;;;;;5112253;28;20450;-75
2023/09/27 01:20:27;;;;;;;2.50;2.30;;;24.90;68.00;;;;;;5114037;28;20442;-75
2023/09/27 01:22:59;;;;;;;3.00;2.80;;;24.90;68.10;;;;;;5093662;28;20447;-75
2023/09/27 01:25:29;;;;;;;2.90;2.70;;;24.90;68.00;;;;;;5100866;27;21202;-75
2023/09/27 01:27:58;;;;;;;2.93;2.73;;;24.90;68.00;;;;;;5113595;28;20572;-75
2023/09/27 01:30:32;;;;;;;3.07;2.87;;;24.90;68.00;;;;;;5093393;28;20780;-75
2023/09/27 01:33:03;;;;;;;2.70;2.50;;;24.80;68.00;;;;;;5104735;28;20945;-75
2023/09/27 01:35:32;;;;;;;2.40;2.30;;;24.80;68.00;;;;;;5113544;28;20423;-75
2023/09/27 01:38:02;;;;;;;3.27;2.97;;;24.80;67.90;;;;;;5113406;28;20450;-75
2023/09/27 01:40:31;;;;;;;9.63;3.90;;;24.80;67.90;;;;;;5096151;27;20526;-75
2023/09/27 01:42:59;;;;;;;3.20;3.00;;;24.80;67.90;;;;;;5112679;28;20494;-75
2023/09/27 01:45:29;;;;;;;2.90;2.70;;;24.80;67.90;;;;;;5093489;28;20492;-75
2023/09/27 01:47:57;;;;;;;3.23;2.97;;;24.80;67.90;;;;;;5122622;27;20523;-75
2023/09/27 01:50:26;;;;;;;2.50;2.40;;;24.80;67.90;;;;;;5119948;27;20451;-75
2023/09/27 01:52:55;;;;;;;2.63;2.43;;;24.80;67.90;;;;;;5116994;27;20478;-75
2023/09/27 01:55:26;;;;;;;2.47;2.30;;;24.80;67.80;;;;;;5112821;28;20525;-74
2023/09/27 01:57:54;;;;;;;2.40;2.20;;;24.80;67.80;;;;;;5093165;28;20471;-75
2023/09/27 02:00:23;;;;;;;2.70;2.40;;;24.80;67.80;;;;;;5099870;27;20449;-74
2023/09/27 02:02:56;;;;;;;3.07;2.87;;;24.80;67.80;;;;;;5120612;27;20434;-74
2023/09/27 02:05:25;;;;;;;3.13;2.87;;;24.80;67.80;;;;;;5094310;28;20482;-74
2023/09/27 02:07:54;;;;;;;3.00;2.80;;;24.80;67.70;;;;;;5112211;28;20464;-74
2023/09/27 02:10:23;;;;;;;2.63;2.43;;;24.80;67.70;;;;;;5117331;27;20449;-74
2023/09/27 02:12:52;;;;;;;2.17;1.97;;;24.80;67.70;;;;;;5116281;27;20441;-74
2023/09/27 02:15:21;;;;;;;2.67;2.47;;;24.70;67.70;;;;;;5087944;28;20465;-75
2023/09/27 02:17:49;;;;;;;2.60;2.40;;;24.70;67.60;;;;;;5102286;28;20964;-74
2023/09/27 02:20:20;;;;;;;2.70;2.50;;;24.70;67.70;;;;;;5115352;27;20444;-74
2023/09/27 02:22:49;;;;;;;3.00;2.70;;;24.70;67.60;;;;;;5126940;27;20485;-74
2023/09/27 02:25:18;;;;;;;2.93;2.60;;;24.70;67.60;;;;;;5093905;28;20460;-74
2023/09/27 02:27:47;;;;;;;2.83;2.63;;;24.70;67.60;;;;;;5112268;28;20487;-74
2023/09/27 02:30:17;;;;;;;2.30;2.20;;;24.70;67.60;;;;;;5114627;27;20862;-75
2023/09/27 02:32:46;;;;;;;2.53;2.40;;;24.70;67.70;;;;;;5111465;28;20459;-75
2023/09/27 02:35:15;;;;;;;2.53;2.30;;;24.70;67.70;;;;;;5112667;28;20804;-75
2023/09/27 02:37:44;;;;;;;3.10;2.90;;;24.70;67.70;;;;;;5093642;28;20451;-75
2023/09/27 02:40:17;;;;;;;3.40;3.10;;;24.70;67.70;;;;;;5115519;27;20805;-75
2023/09/27 02:42:48;;;;;;;2.90;2.60;;;24.70;67.70;;;;;;5112323;28;20497;-74
2023/09/27 02:45:18;;;;;;;2.40;2.30;;;24.70;67.70;;;;;;5111819;28;20522;-75
2023/09/27 02:47:47;;;;;;;3.17;2.60;;;24.70;67.70;;;;;;5111163;28;20500;-75
2023/09/27 02:50:16;;;;;;;2.73;2.53;;;24.70;67.70;;;;;;5088899;27;20452;-74
2023/09/27 02:52:44;;;;;;;2.60;2.40;;;24.60;67.80;;;;;;5091635;28;20546;-74
2023/09/27 02:55:15;;;;;;;2.40;2.27;;;24.60;67.80;;;;;;5080643;28;20922;-74
2023/09/27 02:57:48;;;;;;;2.73;2.53;;;24.60;67.80;;;;;;5111754;28;20436;-74
2023/09/27 03:00:19;;;;;;;2.50;2.30;;;24.60;67.80;;;;;;5097042;27;20448;-75
2023/09/27 03:02:48;;;;;;;2.60;2.40;;;24.60;67.80;;;;;;5107134;27;20444;-74
2023/09/27 03:05:17;;;;;;;2.40;2.20;;;24.60;67.80;;;;;;5092902;28;20956;-74
2023/09/27 03:07:46;;;;;;;2.90;2.70;;;24.60;67.80;;;;;;5088687;28;20457;-74
2023/09/27 03:10:15;;;;;;;2.30;2.20;;;24.60;67.90;;;;;;5088641;27;20524;-75
2023/09/27 03:12:48;;;;;;;2.90;2.70;;;24.60;67.90;;;;;;5092867;28;20454;-74
2023/09/27 03:15:18;;;;;;;2.80;2.60;;;24.60;67.90;;;;;;5093035;28;20448;-74
2023/09/27 03:17:49;;;;;;;2.90;2.70;;;24.60;67.90;;;;;;5111039;28;20846;-74
2023/09/27 03:20:19;;;;;;;2.83;2.53;;;24.60;67.90;;;;;;5095239;27;20878;-75
2023/09/27 03:22:48;;;;;;;2.47;2.30;;;24.60;67.90;;;;;;5089387;28;20464;-74
2023/09/27 03:25:18;;;;;;;2.50;2.30;;;24.60;68.00;;;;;;5074991;28;20458;-74
2023/09/27 03:27:47;;;;;;;3.30;3.00;;;24.60;67.90;;;;;;5120712;27;21065;-75
2023/09/27 03:30:19;;;;;;;3.20;2.90;;;24.60;67.90;;;;;;5092888;28;20985;-75
2023/09/27 03:32:47;;;;;;;3.13;2.87;;;24.60;68.00;;;;;;5092402;28;20533;-75
2023/09/27 03:35:16;;;;;;;3.00;2.70;;;24.60;68.00;;;;;;5093291;28;20441;-75
2023/09/27 03:37:46;;;;;;;2.50;2.30;;;24.60;68.00;;;;;;5117862;27;20445;-74
2023/09/27 03:40:15;;;;;;;3.03;2.83;;;24.50;68.00;;;;;;5092498;28;20459;-74
2023/09/27 03:42:45;;;;;;;3.07;2.87;;;24.50;68.00;;;;;;5079096;28;20451;-75
2023/09/27 03:45:14;;;;;;;2.70;2.50;;;24.50;68.00;;;;;;5095308;28;21392;-74
2023/09/27 03:47:45;;;;;;;2.70;2.50;;;24.50;68.00;;;;;;5090872;28;21019;-75
2023/09/27 03:50:18;;;;;;;2.83;2.53;;;24.50;68.00;;;;;;5091728;28;20445;-75
2023/09/27 03:52:47;;;;;;;2.93;2.70;;;24.50;68.00;;;;;;5107093;28;20532;-75
2023/09/27 03:55:15;;;;;;;2.40;2.20;;;24.50;68.00;;;;;;5110573;28;20464;-75
2023/09/27 03:57:44;;;;;;;2.40;2.20;;;24.50;68.00;;;;;;5118438;28;20452;-75
2023/09/27 04:00:14;;;;;;;2.40;2.30;;;24.50;68.00;;;;;;5111165;28;20775;-75
2023/09/27 04:02:48;;;;;;;2.80;2.60;;;24.50;68.10;;;;;;5077005;28;20815;-75
2023/09/27 04:05:19;;;;;;;1.80;1.70;;;24.50;68.10;;;;;;5104968;28;20935;-75
2023/09/27 04:07:47;;;;;;;2.63;2.43;;;24.50;68.10;;;;;;5105655;28;20466;-75
2023/09/27 04:10:17;;;;;;;2.77;2.57;;;24.50;68.10;;;;;;5110285;28;20476;-75
2023/09/27 04:12:45;;;;;;;2.33;2.23;;;24.50;68.10;;;;;;5109578;28;20445;-75
2023/09/27 04:15:14;;;;;;;2.90;2.50;;;24.40;68.10;;;;;;5110648;28;20454;-75
2023/09/27 04:17:42;;;;;;;2.47;2.33;;;24.40;68.20;;;;;;5105814;28;20447;-75
2023/09/27 04:20:17;;;;;;;2.30;2.20;;;24.40;68.20;;;;;;5108155;28;20443;-75
2023/09/27 04:22:47;;;;;;;2.27;2.17;;;24.40;68.10;;;;;;5101295;28;20448;-75
2023/09/27 04:25:17;;;;;;;2.20;2.10;;;24.40;68.20;;;;;;5103025;28;20797;-75
2023/09/27 04:27:46;;;;;;;2.20;2.10;;;24.40;68.10;;;;;;5113745;28;21013;-74
2023/09/27 04:30:15;;;;;;;2.20;2.10;;;24.40;68.20;;;;;;5108502;28;20499;-75
2023/09/27 04:32:45;;;;;;;2.87;2.67;;;24.40;68.10;;;;;;5113904;28;20450;-75
2023/09/27 04:35:15;;;;;;;3.50;3.20;;;24.40;68.10;;;;;;5105838;28;20451;-75
2023/09/27 04:37:43;;;;;;;2.70;2.50;;;24.40;68.10;;;;;;5106811;28;20446;-75
2023/09/27 04:40:13;;;;;;;2.53;2.33;;;24.40;68.10;;;;;;5108274;28;20925;-76
2023/09/27 04:42:43;;;;;;;2.67;2.30;;;24.40;68.10;;;;;;5103163;28;20457;-76
2023/09/27 04:45:13;;;;;;;2.50;2.30;;;24.40;68.10;;;;;;5109043;28;20447;-75
2023/09/27 04:47:44;;;;;;;2.00;1.90;;;24.40;68.10;;;;;;5109278;28;20478;-75
2023/09/27 04:50:16;;;;;;;2.30;2.20;;;24.40;68.10;;;;;;5095713;28;20446;-75
2023/09/27 04:52:45;;;;;;;2.27;2.13;;;24.40;68.10;;;;;;5099537;28;20859;-75
2023/09/27 04:55:14;;;;;;;2.20;2.10;;;24.40;68.10;;;;;;5105376;28;20458;-75
2023/09/27 04:57:43;;;;;;;2.40;2.20;;;24.40;68.10;;;;;;5100806;28;20928;-77
2023/09/27 05:00:18;;;;;;;3.30;2.20;;;24.40;68.20;;;;;;5106301;28;20454;-72
2023/09/27 05:02:48;;;;;;;2.30;2.10;;;24.40;68.10;;;;;;5112792;27;22384;-71
2023/09/27 05:05:18;;;;;;;2.40;2.30;;;24.40;68.10;;;;;;5105288;27;20792;-71
2023/09/27 05:07:46;;;;;;;2.57;2.37;;;24.40;68.10;;;;;;5109090;28;20491;-70
2023/09/27 05:10:15;;;;;;;2.30;2.20;;;24.40;68.20;;;;;;5104872;28;20454;-71
2023/09/27 05:12:43;;;;;;;2.20;2.10;;;24.40;68.20;;;;;;5102426;28;20452;-70
2023/09/27 05:15:11;;;;;;;2.47;2.30;;;24.40;68.20;;;;;;5103750;28;20464;-73
2023/09/27 05:17:39;;;;;;;2.53;2.33;;;24.40;68.20;;;;;;5106181;28;20825;-72
2023/09/27 05:20:10;;;;;;;2.53;2.30;;;24.40;68.20;;;;;;5110559;28;20458;-73
2023/09/27 05:22:42;;;;;;;4.40;2.50;;;24.40;68.20;;;;;;5108312;27;20454;-72
2023/09/27 05:25:11;;;;;;;2.63;2.43;;;24.40;68.20;;;;;;5106590;28;20452;-72
2023/09/27 05:27:40;;;;;;;2.53;2.37;;;24.40;68.20;;;;;;5109380;28;20480;-72
2023/09/27 05:30:10;;;;;;;2.13;2.03;;;24.40;68.20;;;;;;5105417;28;20529;-73
2023/09/27 05:32:38;;;;;;;2.70;2.50;;;24.40;68.20;;;;;;5101457;27;20460;-73
2023/09/27 05:35:07;;;;;;;2.93;2.57;;;24.40;68.20;;;;;;5108709;28;20482;-73
2023/09/27 05:37:36;;;;;;;2.20;2.00;;;24.40;68.20;;;;;;5091121;28;20454;-74
2023/09/27 05:40:09;;;;;;;2.70;2.50;;;24.40;68.20;;;;;;5110716;28;20849;-74
2023/09/27 05:42:38;;;;;;;2.50;2.30;;;24.40;68.20;;;;;;5108479;27;20444;-74
2023/09/27 05:45:10;;;;;;;2.57;2.37;;;24.40;68.20;;;;;;5105053;27;20539;-73
2023/09/27 05:47:39;;;;;;;3.23;3.03;;;24.30;68.20;;;;;;5091900;28;20991;-73
2023/09/27 05:50:11;;;;;;;2.50;2.30;;;24.40;68.30;;;;;;5109360;28;20441;-74
2023/09/27 05:52:43;;;;;;;2.60;2.40;;;24.30;68.20;;;;;;5110114;28;20855;-74
2023/09/27 05:55:13;;;;;;;2.30;2.10;;;24.40;68.20;;;;;;5111590;28;20840;-73
2023/09/27 05:57:41;;;;;;;4.13;2.53;;;24.40;68.20;;;;;;5112049;28;20783;-73
2023/09/27 06:00:19;;;;;;;2.83;2.30;;;24.30;68.20;;;;;;5109792;28;20441;-73
2023/09/27 06:02:47;;;;;;;2.67;2.47;;;24.30;68.30;;;;;;5102913;28;20430;-73
2023/09/27 06:05:16;;;;;;;2.60;2.30;;;24.30;68.20;;;;;;5111896;28;20801;-73
2023/09/27 06:07:44;;;;;;;2.40;2.20;;;24.30;68.30;;;;;;5110466;28;20799;-73
2023/09/27 06:10:14;;;;;;;2.80;2.60;;;24.30;68.30;;;;;;5109566;28;20449;-74
2023/09/27 06:12:42;;;;;;;2.60;2.40;;;24.30;68.20;;;;;;5111303;28;20560;-74
2023/09/27 06:15:12;;;;;;;2.70;2.47;;;24.30;68.20;;;;;;5110939;28;20494;-73
2023/09/27 06:17:40;;;;;;;2.63;2.43;;;24.30;68.20;;;;;;5110041;28;20548;-74
2023/09/27 06:20:11;;;;;;;2.47;2.27;;;24.30;68.20;;;;;;5111036;28;20441;-73
2023/09/27 06:22:42;;;;;;;2.90;2.50;;;24.30;68.20;;;;;;5105394;28;20449;-72
2023/09/27 06:25:12;;;;;;;2.80;2.60;;;24.30;68.20;;;;;;5110341;28;20449;-72
2023/09/27 06:27:44;;;;;;;2.90;2.60;;;24.30;68.20;;;;;;5099805;27;20494;-73
2023/09/27 06:30:14;;;;;;;2.70;2.50;;;24.30;68.20;;;;;;5098502;28;20444;-72
2023/09/27 06:32:42;;;;;;;2.87;2.67;;;24.30;68.20;;;;;;5102012;28;20433;-73
2023/09/27 06:35:14;;;;;;;2.60;2.50;;;24.30;68.10;;;;;;5109631;28;20451;-72
2023/09/27 06:37:43;;;;;;;3.77;2.30;;;24.30;68.10;;;;;;5104397;28;20950;-73
2023/09/27 06:40:16;;;;;;;3.17;2.57;;;24.30;68.10;;;;;;5105520;28;20456;-73
2023/09/27 06:42:46;;;;;;;7.13;3.80;;;24.30;68.00;;;;;;5109643;27;20464;-73
2023/09/27 06:45:15;;;;;;;9.37;5.30;;;24.30;68.80;;;;;;5084989;28;20468;-73
2023/09/27 06:47:45;;;;;;;3.03;2.80;;;24.30;72.30;;;;;;5106223;28;20450;-72
2023/09/27 06:50:15;;;;;;;3.20;2.60;;;24.30;71.10;;;;;;5109775;28;20453;-72
2023/09/27 06:52:45;;;;;;;3.77;3.43;;;24.30;70.50;;;;;;5107922;28;20548;-72
2023/09/27 06:55:16;;;;;;;5.33;3.20;;;24.40;70.50;;;;;;5107676;28;20512;-72
2023/09/27 06:57:49;;;;;;;4.73;3.20;;;24.40;70.30;;;;;;5105818;28;20442;-72
2023/09/27 07:00:19;;;;;;;3.80;3.17;;;24.40;70.30;;;;;;5108812;28;20442;-72
2023/09/27 07:02:48;;;;;;;3.63;3.10;;;24.40;70.20;;;;;;5109757;27;20479;-73
2023/09/27 07:05:19;;;;;;;3.60;3.20;;;24.40;70.20;;;;;;5107807;27;21490;-72
2023/09/27 07:07:49;;;;;;;7.57;4.60;;;24.50;70.20;;;;;;5109534;28;20441;-73
2023/09/27 07:10:17;;;;;;;3.73;2.87;;;24.50;70.10;;;;;;5109966;27;20456;-72
2023/09/27 07:12:47;;;;;;;4.17;2.90;;;24.50;70.10;;;;;;5110252;28;20454;-72
2023/09/27 07:15:16;;;;;;;3.47;2.60;;;24.60;70.10;;;;;;5111175;28;20452;-73
2023/09/27 07:17:44;;;;;;;5.73;3.50;;;24.60;70.10;;;;;;5109632;28;20445;-72
2023/09/27 07:20:23;;;;;;;4.33;2.90;;;24.60;70.00;;;;;;5103855;28;20451;-71
2023/09/27 07:22:53;;;;;;;23.53;15.43;;;24.60;70.40;;;;;;5109744;28;20454;-72
2023/09/27 07:25:21;;;;;;;15.10;10.23;;;24.60;70.60;;;;;;5109741;27;20485;-72
2023/09/27 07:27:52;;;;;;;32.07;21.33;;;24.60;70.40;;;;;;5109769;28;20475;-73
2023/09/27 07:30:23;;;;;;;21.37;13.90;;;24.70;70.40;;;;;;5110579;28;20479;-73
2023/09/27 07:32:53;;;;;;;17.60;11.47;;;24.70;70.40;;;;;;5109755;28;20563;-72
2023/09/27 07:35:23;;;;;;;17.33;11.33;;;24.70;70.40;;;;;;5109070;28;20458;-72
2023/09/27 07:37:52;;;;;;;11.30;8.50;;;24.70;70.30;;;;;;5110434;28;20443;-74
2023/09/27 07:40:20;;;;;;;12.30;6.93;;;24.70;70.30;;;;;;5109921;27;20452;-73
2023/09/27 07:42:48;;;;;;;9.47;6.63;;;24.80;70.00;;;;;;5110155;28;20453;-73
2023/09/27 07:45:21;;;;;;;10.67;6.90;;;24.80;69.90;;;;;;5110827;28;20433;-73
2023/09/27 07:47:51;;;;;;;10.10;6.40;;;24.80;70.20;;;;;;5109846;28;20474;-73
2023/09/27 07:50:21;;;;;;;60.80;36.40;;;24.80;70.20;;;;;;5109959;28;20851;-74
2023/09/27 07:52:49;;;;;;;29.80;13.47;;;24.80;70.30;;;;;;5107554;28;21048;-72
2023/09/27 07:55:21;;;;;;;19.17;10.80;;;24.80;70.00;;;;;;5106809;28;20508;-72
2023/09/27 07:57:49;;;;;;;17.03;11.00;;;24.80;69.90;;;;;;5110029;28;20440;-72
2023/09/27 08:00:25;;;;;;;15.03;9.80;;;24.80;69.90;;;;;;5109649;28;20437;-72
2023/09/27 08:02:55;;;;;;;13.27;9.03;;;24.90;69.90;;;;;;5114139;28;20497;-72
2023/09/27 08:05:23;;;;;;;13.47;7.80;;;24.90;70.00;;;;;;5110077;28;20548;-72
2023/09/27 08:07:52;;;;;;;11.20;8.20;;;24.90;69.90;;;;;;5107487;28;20449;-72
2023/09/27 08:10:22;;;;;;;11.33;7.17;;;24.90;69.90;;;;;;5109567;28;20563;-72
2023/09/27 08:12:51;;;;;;;13.30;8.10;;;24.90;69.90;;;;;;5109186;28;20445;-73
2023/09/27 08:15:20;;;;;;;11.23;7.67;;;24.90;69.90;;;;;;5108571;28;20477;-72
2023/09/27 08:17:48;;;;;;;7.37;5.37;;;24.90;69.90;;;;;;5091295;28;20445;-72
2023/09/27 08:20:18;;;;;;;9.57;5.57;;;24.90;69.90;;;;;;5103861;28;20448;-72
2023/09/27 08:22:47;;;;;;;9.80;6.03;;;24.90;69.80;;;;;;5104356;28;20998;-72
2023/09/27 08:25:15;;;;;;;10.93;6.10;;;25.00;69.70;;;;;;5108095;28;20445;-73
2023/09/27 08:27:45;;;;;;;6.33;5.27;;;24.90;69.40;;;;;;5106404;28;20480;-73
2023/09/27 08:30:14;;;;;;;8.00;5.53;;;25.00;69.50;;;;;;5109093;28;20543;-73
2023/09/27 08:32:44;;;;;;;5.47;4.97;;;25.00;69.50;;;;;;5094000;28;20445;-73
2023/09/27 08:35:12;;;;;;;7.13;6.40;;;25.00;69.50;;;;;;5110226;28;20779;-73
2023/09/27 08:37:41;;;;;;;5.20;4.47;;;25.00;69.50;;;;;;5113295;28;20963;-73
2023/09/27 08:40:12;;;;;;;6.80;5.03;;;25.00;69.50;;;;;;5113866;28;20451;-72
2023/09/27 08:42:42;;;;;;;5.87;4.30;;;25.00;69.50;;;;;;5110967;28;20438;-72
2023/09/27 08:45:13;;;;;;;6.70;4.30;;;25.00;69.50;;;;;;5112618;27;20799;-72
2023/09/27 08:47:44;;;;;;;8.23;4.90;;;25.00;69.50;;;;;;5113006;28;20445;-73
2023/09/27 08:50:14;;;;;;;6.87;4.70;;;25.00;69.50;;;;;;5112193;28;20468;-72
2023/09/27 08:52:46;;;;;;;7.07;4.67;;;25.00;69.50;;;;;;5113391;27;20936;-72
2023/09/27 08:55:15;;;;;;;5.20;4.33;;;25.00;69.50;;;;;;5106657;28;20467;-74
2023/09/27 08:57:46;;;;;;;5.40;4.10;;;25.00;69.50;;;;;;5111527;27;20471;-73
2023/09/27 09:00:16;;;;;;;4.20;3.80;;;25.10;69.50;;;;;;5113607;27;20799;-72
2023/09/27 09:02:48;;;;;;;5.70;4.40;;;25.10;69.40;;;;;;5111106;27;20944;-73
2023/09/27 09:05:19;;;;;;;7.20;4.53;;;25.10;69.50;;;;;;5108676;28;20535;-72
2023/09/27 09:07:47;;;;;;;5.93;3.70;;;25.10;69.50;;;;;;5111415;28;20441;-72
2023/09/27 09:10:16;;;;;;;5.40;3.60;;;25.10;69.50;;;;;;5113039;28;20478;-72
2023/09/27 09:12:47;;;;;;;4.40;3.43;;;25.10;69.50;;;;;;5109765;28;20973;-72
2023/09/27 09:15:28;;;;;;;5.40;4.23;;;25.10;69.50;;;;;;5108494;28;20449;-72
2023/09/27 09:17:58;;;;;;;6.60;4.87;;;25.10;69.50;;;;;;5110292;28;20991;-72
2023/09/27 09:20:32;;;;;;;5.53;3.70;;;25.10;69.50;;;;;;5112410;27;20442;-72
2023/09/27 09:23:06;;;;;;;4.93;4.07;;;25.10;69.50;;;;;;5112684;27;20441;-72
2023/09/27 09:25:43;;;;;;;8.60;4.07;;;25.10;69.50;;;;;;5094314;28;20482;-71
2023/09/27 09:28:13;;;;;;;6.97;3.90;;;25.10;69.50;;;;;;5112622;28;20556;-72
2023/09/27 09:30:44;;;;;;;4.40;4.00;;;25.10;69.50;;;;;;5108138;28;20473;-70
2023/09/27 09:33:19;;;;;;;4.60;4.20;;;25.10;69.50;;;;;;5112501;28;20441;-70
2023/09/27 09:35:48;;;;;;;5.43;4.03;;;25.10;69.50;;;;;;5109728;28;20454;-72
2023/09/27 09:38:24;;;;;;;5.03;3.80;;;25.10;69.50;;;;;;5109593;28;20511;-72
2023/09/27 09:40:54;;;;;;;5.00;3.60;;;25.20;69.50;;;;;;5110796;28;20453;-72
2023/09/27 09:43:30;;;;;;;4.10;3.53;;;25.20;69.50;;;;;;5110704;28;20464;-71
2023/09/27 09:45:58;;;;;;;3.83;3.53;;;25.20;69.50;;;;;;5108503;28;20447;-72
2023/09/27 09:48:28;;;;;;;4.33;3.33;;;25.20;69.40;;;;;;5112742;28;21032;-71
2023/09/27 09:51:04;;;;;;;3.60;3.30;;;25.20;69.40;;;;;;5107658;28;20464;-72
2023/09/27 09:53:32;;;;;;;4.43;3.50;;;25.20;69.40;;;;;;5095009;28;24561;-72
2023/09/27 09:56:03;;;;;;;4.00;3.60;;;25.20;69.40;;;;;;5108490;27;20495;-73
2023/09/27 09:58:38;;;;;;;3.60;3.30;;;25.20;69.40;;;;;;5109047;27;20502;-73
2023/09/27 10:01:10;;;;;;;3.37;3.07;;;25.20;69.20;;;;;;5101464;28;20454;-73
2023/09/27 10:03:47;;;;;;;4.00;3.37;;;25.20;69.20;;;;;;5097090;28;20453;-73
2023/09/27 10:06:19;;;;;;;4.20;3.70;;;25.20;69.20;;;;;;5108604;28;21022;-74
2023/09/27 10:09:13;;;;;;;4.13;3.33;;;25.20;69.20;;;;;;5104184;28;20511;-73
2023/09/27 10:11:45;;;;;;;4.80;4.23;;;25.20;69.20;;;;;;5108049;28;21019;-73
2023/09/27 10:14:18;;;;;;;3.80;3.60;;;25.20;69.10;;;;;;5102464;28;20471;-73
2023/09/27 10:16:48;;;;;;;5.60;3.40;;;25.20;69.20;;;;;;5104587;28;20439;-74
2023/09/27 10:19:28;;;;;;;4.50;3.70;;;25.20;69.20;;;;;;5112224;28;20447;-73
2023/09/27 10:22:05;;;;;;;4.13;3.60;;;25.20;69.20;;;;;;5105301;28;20527;-74
2023/09/27 10:24:35;;;;;;;3.43;3.13;;;25.20;69.20;;;;;;5098013;27;20478;-74
2023/09/27 10:27:04;;;;;;;4.07;3.37;;;25.20;69.20;;;;;;5105524;27;20521;-73
2023/09/27 10:29:34;;;;;;;4.57;2.80;;;25.20;69.20;;;;;;5099177;28;20488;-74
2023/09/27 10:32:19;;;;;;;3.50;3.20;;;25.20;69.30;;;;;;5102088;28;20521;-74
2023/09/27 10:34:51;;;;;;;4.07;2.70;;;25.20;69.20;;;;;;5104438;28;20453;-73
2023/09/27 10:37:58;;;;;;;3.40;3.10;;;25.20;69.10;;;;;;5100790;28;20453;-74
2023/09/27 10:40:26;;;;;;;3.20;2.90;;;25.30;69.00;;;;;;5095428;27;20454;-74
2023/09/27 10:42:55;;;;;;;3.17;2.90;;;25.40;68.70;;;;;;5105460;28;20464;-74
2023/09/27 10:45:24;;;;;;;5.07;3.10;;;25.50;68.50;;;;;;5102023;28;20459;-74
2023/09/27 10:47:54;;;;;;;3.37;3.07;;;25.70;68.10;;;;;;5107750;28;20441;-74
2023/09/27 10:50:30;;;;;;;2.53;2.33;;;26.00;67.40;;;;;;5107831;27;20469;-74
2023/09/27 10:53:02;;;;;;;2.47;2.27;;;26.40;66.60;;;;;;5106998;27;20463;-72
2023/09/27 10:55:41;;;;;;;3.10;2.87;;;26.60;65.80;;;;;;5110092;28;20446;-72
2023/09/27 10:58:12;;;;;;;3.13;2.83;;;26.90;65.40;;;;;;5091197;28;20786;-72
2023/09/27 11:00:51;;;;;;;2.90;2.60;;;27.10;64.90;;;;;;5091441;28;20875;-72
2023/09/27 11:03:19;;;;;;;3.20;2.90;;;27.20;64.50;;;;;;5110248;28;20521;-73
2023/09/27 11:05:49;;;;;;;3.67;3.37;;;27.30;64.20;;;;;;5092295;28;20513;-73
2023/09/27 11:08:22;;;;;;;3.20;2.40;;;27.50;63.90;;;;;;5089515;28;20919;-72
2023/09/27 11:10:52;;;;;;;2.60;2.43;;;27.50;63.70;;;;;;5108848;28;20976;-72
2023/09/27 11:13:21;;;;;;;2.53;2.33;;;27.60;63.60;;;;;;5108940;28;20443;-72
2023/09/27 11:15:50;;;;;;;3.20;2.90;;;27.60;63.40;;;;;;5107514;28;20438;-72
2023/09/27 11:18:19;;;;;;;2.90;2.70;;;27.60;63.60;;;;;;5110609;28;20464;-73
2023/09/27 11:20:49;;;;;;;2.97;2.73;;;27.60;63.70;;;;;;5109360;28;20447;-71
2023/09/27 11:23:19;;;;;;;2.97;2.70;;;27.50;63.70;;;;;;5100872;27;20520;-71
2023/09/27 11:25:49;;;;;;;2.90;2.70;;;27.60;63.70;;;;;;5107255;27;20488;-71
2023/09/27 11:28:17;;;;;;;4.10;2.57;;;27.50;63.70;;;;;;5110689;27;20533;-71
2023/09/27 11:30:46;;;;;;;2.80;2.60;;;27.50;63.80;;;;;;5105694;28;20471;-70
2023/09/27 11:33:16;;;;;;;7.07;2.87;;;27.60;63.60;;;;;;5099038;28;20534;-69
2023/09/27 11:35:50;;;;;;;3.70;2.60;;;27.60;63.80;;;;;;5107984;28;21407;-71
2023/09/27 11:38:20;;;;;;;3.10;2.20;;;27.60;63.80;;;;;;5109876;28;20479;-70
2023/09/27 11:40:48;;;;;;;3.30;2.80;;;27.60;63.70;;;;;;5104206;28;20452;-71
2023/09/27 11:43:17;;;;;;;2.67;2.43;;;27.70;63.60;;;;;;5107036;28;20993;-70
2023/09/27 11:45:47;;;;;;;9.63;4.10;;;27.70;63.60;;;;;;5109064;28;20942;-70
2023/09/27 11:48:17;;;;;;;2.70;2.50;;;27.70;63.60;;;;;;5109124;28;20502;-70
2023/09/27 11:50:46;;;;;;;2.20;2.10;;;27.80;63.40;;;;;;5106514;28;20474;-71
2023/09/27 11:53:16;;;;;;;2.67;2.50;;;27.90;63.20;;;;;;5107089;28;20953;-70
2023/09/27 11:55:44;;;;;;;2.33;2.13;;;27.90;63.10;;;;;;5098598;28;20805;-70
2023/09/27 11:58:12;;;;;;;3.10;2.80;;;28.00;63.00;;;;;;5096422;28;20567;-70
2023/09/27 12:00:41;;;;;;;2.77;2.57;;;28.10;62.80;;;;;;5099065;28;20846;-70
2023/09/27 12:03:10;;;;;;;2.27;2.17;;;28.10;62.70;;;;;;5099162;28;20461;-69
2023/09/27 12:05:39;;;;;;;2.37;2.20;;;28.10;62.60;;;;;;5102151;28;20505;-70
2023/09/27 12:08:09;;;;;;;2.33;2.13;;;28.20;62.50;;;;;;5103023;28;20447;-71
2023/09/27 12:10:39;;;;;;;2.37;2.17;;;28.20;62.40;;;;;;5101044;28;20455;-69
2023/09/27 12:13:07;;;;;;;2.73;2.53;;;28.20;62.50;;;;;;5106565;28;20462;-69
2023/09/27 12:15:35;;;;;;;2.20;2.00;;;28.20;62.50;;;;;;5111307;28;20455;-70
2023/09/27 12:18:04;;;;;;;2.77;2.53;;;28.20;62.50;;;;;;5113356;28;20797;-69
2023/09/27 12:20:33;;;;;;;2.47;2.07;;;28.20;62.40;;;;;;5113380;28;20446;-69
2023/09/27 12:23:09;;;;;;;2.53;2.40;;;28.20;62.40;;;;;;5108819;27;20473;-69
2023/09/27 12:25:40;;;;;;;2.33;2.23;;;28.20;62.40;;;;;;5107375;27;20892;-70
2023/09/27 12:28:09;;;;;;;3.67;2.50;;;28.30;62.40;;;;;;5113271;28;20488;-70
2023/09/27 12:30:37;;;;;;;1.97;1.87;;;28.20;62.40;;;;;;5112314;28;20461;-70
2023/09/27 12:33:05;;;;;;;2.63;2.43;;;28.20;62.40;;;;;;5113732;28;21316;-69
2023/09/27 12:35:34;;;;;;;4.63;2.80;;;28.30;62.40;;;;;;5112755;28;20443;-70
2023/09/27 12:38:05;;;;;;;2.63;2.43;;;28.30;62.30;;;;;;5112287;28;20439;-69
2023/09/27 12:40:34;;;;;;;2.40;2.20;;;28.30;62.10;;;;;;5110806;27;21140;-72
2023/09/27 12:43:04;;;;;;;2.53;2.33;;;28.20;62.00;;;;;;5108665;28;20450;-71
2023/09/27 12:45:38;;;;;;;2.93;2.33;;;28.20;62.10;;;;;;5112096;28;20451;-71
2023/09/27 12:48:07;;;;;;;2.40;2.30;;;28.20;62.20;;;;;;5113354;28;20520;-70
2023/09/27 12:50:36;;;;;;;2.40;2.30;;;28.20;62.20;;;;;;5110859;27;21187;-72
2023/09/27 12:53:04;;;;;;;2.53;1.80;;;28.20;62.20;;;;;;5110712;28;20465;-72
2023/09/27 12:55:33;;;;;;;3.00;2.30;;;28.20;62.40;;;;;;5107452;28;20444;-72
2023/09/27 12:58:03;;;;;;;3.43;2.23;;;28.10;62.40;;;;;;5112464;28;20447;-70
2023/09/27 13:00:31;;;;;;;2.00;1.90;;;28.10;62.50;;;;;;5112369;28;20443;-71